createdAt,value
2023-03-17T00:00:32.874Z,84.53
2023-03-17T00:03:04.024Z,84.55
2023-03-17T00:05:35.818Z,84.58
2023-03-17T00:08:23.693Z,84.80
2023-03-17T00:10:51.831Z,85.05
2023-03-17T00:13:20.263Z,85.16
2023-03-17T00:16:10.156Z,85.16
2023-03-17T00:18:38.915Z,85.22
2023-03-17T00:21:13.437Z,85.43
2023-03-17T00:23:42.559Z,85.68
2023-03-17T00:26:11.423Z,85.77
2023-03-17T00:28:40.410Z,85.96
2023-03-17T00:31:24.745Z,86.11
2023-03-17T00:33:59.329Z,86.31
2023-03-17T00:36:29.561Z,86.33
2023-03-17T00:38:58.650Z,86.49
2023-03-17T00:41:27.495Z,86.45
2023-03-17T00:43:55.876Z,86.44
2023-03-17T00:46:37.825Z,86.65
2023-03-17T00:49:21.422Z,86.79
2023-03-17T00:51:51.033Z,86.65
2023-03-17T00:54:20.970Z,86.82
2023-03-17T00:56:49.524Z,87.04
2023-03-17T00:59:19.447Z,87.12
2023-03-17T01:01:49.227Z,86.99
2023-03-17T01:04:18.733Z,87.05
2023-03-17T01:06:48.494Z,87.18
2023-03-17T01:09:18.669Z,87.46
2023-03-17T01:11:48.830Z,87.61
2023-03-17T01:14:17.520Z,87.64
2023-03-17T01:16:47.845Z,87.54
2023-03-17T01:19:23.183Z,87.54
2023-03-17T01:21:52.490Z,87.80
2023-03-17T01:24:21.123Z,87.77
2023-03-17T01:26:49.527Z,88.16
2023-03-17T01:29:18.386Z,88.07
2023-03-17T01:31:48.226Z,88.09
2023-03-17T01:34:22.563Z,88.17
2023-03-17T01:36:51.621Z,88.57
2023-03-17T01:39:19.866Z,88.53
2023-03-17T01:42:08.551Z,88.49
2023-03-17T01:45:00.802Z,88.78
2023-03-17T01:47:32.774Z,88.92
2023-03-17T01:50:07.677Z,88.79
2023-03-17T01:52:39.983Z,88.60
2023-03-17T01:55:14.877Z,88.87
2023-03-17T01:57:53.695Z,88.73
2023-03-17T02:00:26.892Z,88.65
2023-03-17T02:02:56.631Z,88.56
2023-03-17T02:05:27.434Z,88.61
2023-03-17T02:07:55.684Z,88.69
2023-03-17T02:10:29.938Z,88.83
2023-03-17T02:13:05.831Z,88.61
2023-03-17T02:15:46.535Z,88.64
2023-03-17T02:18:15.440Z,88.45
2023-03-17T02:20:46.937Z,88.51
2023-03-17T02:23:22.595Z,88.45
2023-03-17T02:25:52.035Z,88.46
2023-03-17T02:28:23.772Z,88.43
2023-03-17T02:30:54.152Z,88.46
2023-03-17T02:33:22.722Z,88.40
2023-03-17T02:35:57.242Z,88.59
2023-03-17T02:38:26.341Z,88.59
2023-03-17T02:40:54.590Z,88.46
2023-03-17T02:43:24.046Z,88.11
2023-03-17T02:45:55.209Z,87.97
2023-03-17T02:48:27.413Z,87.94
2023-03-17T02:50:56.148Z,87.84
2023-03-17T02:53:27.245Z,87.47
2023-03-17T02:55:55.411Z,87.44
2023-03-17T02:58:23.731Z,87.49
2023-03-17T03:00:52.186Z,87.42
2023-03-17T03:03:21.582Z,87.38
2023-03-17T03:05:49.950Z,87.48
2023-03-17T03:08:19.561Z,87.36
2023-03-17T03:10:48.164Z,86.91
2023-03-17T03:13:16.520Z,86.88
2023-03-17T03:15:45.397Z,87.06
2023-03-17T03:18:13.995Z,86.92
2023-03-17T03:20:44.725Z,86.93
2023-03-17T03:23:14.255Z,86.79
2023-03-17T03:25:43.327Z,86.89
2023-03-17T03:28:14.266Z,86.99
2023-03-17T03:30:44.881Z,86.85
2023-03-17T03:33:14.931Z,87.15
2023-03-17T03:35:44.635Z,87.25
2023-03-17T03:38:14.031Z,87.31
2023-03-17T03:40:42.818Z,87.13
2023-03-17T03:43:22.320Z,86.84
2023-03-17T03:45:52.262Z,86.61
2023-03-17T03:48:23.217Z,86.41
2023-03-17T03:50:57.916Z,86.56
2023-03-17T03:53:26.646Z,86.48
2023-03-17T03:55:59.106Z,86.69
2023-03-17T03:58:27.374Z,86.63
2023-03-17T04:00:58.023Z,86.65
2023-03-17T04:03:27.203Z,86.54
2023-03-17T04:05:55.666Z,86.48
2023-03-17T04:08:24.986Z,86.60
2023-03-17T04:10:54.573Z,86.75
2023-03-17T04:13:23.199Z,86.87
2023-03-17T04:15:51.913Z,86.64
2023-03-17T04:18:21.651Z,86.69
2023-03-17T04:20:49.945Z,86.61
2023-03-17T04:23:19.028Z,86.54
2023-03-17T04:25:47.813Z,86.34
2023-03-17T04:28:20.618Z,86.17
2023-03-17T04:30:49.798Z,86.24
2023-03-17T04:33:20.323Z,86.47
2023-03-17T04:35:48.692Z,86.50
2023-03-17T04:38:22.314Z,86.49
2023-03-17T04:40:54.528Z,86.27
2023-03-17T04:43:23.254Z,86.19
2023-03-17T04:45:52.163Z,86.64
2023-03-17T04:48:21.091Z,86.56
2023-03-17T04:50:49.715Z,86.50
2023-03-17T04:53:17.847Z,86.52
2023-03-17T04:55:46.116Z,86.54
2023-03-17T04:58:28.125Z,86.27
2023-03-17T05:00:59.189Z,86.20
2023-03-17T05:03:28.775Z,85.94
2023-03-17T05:06:01.620Z,85.73
2023-03-17T05:08:30.666Z,85.50
2023-03-17T05:11:02.079Z,85.22
2023-03-17T05:13:30.615Z,84.90
2023-03-17T05:16:01.149Z,84.61
2023-03-17T05:18:34.674Z,84.60
2023-03-17T05:21:03.019Z,84.53
2023-03-17T05:23:31.511Z,83.91
2023-03-17T05:26:00.228Z,83.34
2023-03-17T05:28:32.563Z,82.73
2023-03-17T05:31:00.880Z,82.23
2023-03-17T05:33:30.134Z,81.27
2023-03-17T05:35:58.913Z,80.38
2023-03-17T05:38:27.810Z,79.40
2023-03-17T05:40:59.175Z,78.59
2023-03-17T05:43:27.955Z,78.09
2023-03-17T05:45:56.488Z,77.86
2023-03-17T05:48:26.749Z,76.92
2023-03-17T05:50:55.721Z,76.53
2023-03-17T05:53:23.855Z,76.30
2023-03-17T05:55:53.100Z,75.96
2023-03-17T05:58:22.273Z,75.21
2023-03-17T06:00:56.663Z,74.47
2023-03-17T06:03:30.765Z,73.46
2023-03-17T06:05:58.969Z,72.74
2023-03-17T06:08:28.833Z,72.38
2023-03-17T06:10:57.475Z,71.65
2023-03-17T06:13:26.823Z,70.67
2023-03-17T06:15:55.062Z,70.48
2023-03-17T06:18:25.540Z,69.39
2023-03-17T06:20:56.187Z,68.84
2023-03-17T06:23:24.693Z,68.48
2023-03-17T06:25:55.552Z,67.94
2023-03-17T06:28:25.895Z,66.95
2023-03-17T06:30:54.877Z,66.93
2023-03-17T06:33:48.886Z,66.10
2023-03-17T06:36:23.598Z,65.86
2023-03-17T06:38:52.642Z,65.28
2023-03-17T06:41:25.491Z,64.51
2023-03-17T06:43:54.136Z,63.80
2023-03-17T06:46:23.734Z,63.47
2023-03-17T06:48:52.763Z,63.06
2023-03-17T06:51:21.000Z,62.72
2023-03-17T06:53:53.637Z,62.21
2023-03-17T06:56:29.842Z,61.55
2023-03-17T06:59:03.303Z,60.93
2023-03-17T07:01:54.891Z,60.27
2023-03-17T07:04:25.977Z,59.96
2023-03-17T07:06:54.787Z,59.62
2023-03-17T07:09:23.507Z,59.18
2023-03-17T07:11:56.725Z,58.44
2023-03-17T07:14:26.028Z,57.99
2023-03-17T07:16:54.481Z,57.23
2023-03-17T07:19:27.566Z,56.43
2023-03-17T07:21:57.898Z,56.41
2023-03-17T07:24:26.431Z,55.83
2023-03-17T07:26:54.811Z,55.67
2023-03-17T07:29:27.599Z,55.00
2023-03-17T07:32:01.510Z,54.53
2023-03-17T07:34:31.142Z,54.19
2023-03-17T07:37:05.803Z,53.66
2023-03-17T07:39:37.423Z,53.50
2023-03-17T07:42:17.034Z,53.17
2023-03-17T07:44:50.970Z,52.76
2023-03-17T07:47:42.233Z,51.89
2023-03-17T07:50:12.799Z,51.73
2023-03-17T07:52:43.849Z,51.26
2023-03-17T07:55:38.122Z,50.76
2023-03-17T07:58:09.360Z,50.22
2023-03-17T08:00:41.078Z,49.87
2023-03-17T08:03:11.238Z,49.47
2023-03-17T08:06:01.272Z,49.21
2023-03-17T08:08:33.956Z,48.57
2023-03-17T08:11:05.279Z,48.08
2023-03-17T08:13:34.221Z,47.95
2023-03-17T08:16:04.202Z,47.76
2023-03-17T08:18:32.854Z,47.27
2023-03-17T08:21:02.226Z,47.38
2023-03-17T08:23:35.563Z,47.37
2023-03-17T08:26:04.497Z,46.51
2023-03-17T08:28:33.340Z,46.28
2023-03-17T08:31:13.813Z,46.19
2023-03-17T08:33:43.217Z,45.71
2023-03-17T08:36:11.712Z,45.51
2023-03-17T08:38:41.736Z,45.20
2023-03-17T08:41:37.535Z,44.99
2023-03-17T08:44:09.093Z,44.23
2023-03-17T08:46:37.805Z,43.98
2023-03-17T08:49:07.473Z,43.99
2023-03-17T08:51:37.015Z,43.59
2023-03-17T08:54:09.043Z,43.26
2023-03-17T08:56:42.155Z,43.16
2023-03-17T08:59:10.849Z,43.08
2023-03-17T09:01:40.512Z,43.13
2023-03-17T09:04:10.132Z,42.83
2023-03-17T09:06:51.793Z,42.33
2023-03-17T09:09:31.257Z,42.02
2023-03-17T09:12:23.246Z,41.62
2023-03-17T09:15:12.085Z,41.08
2023-03-17T09:17:42.138Z,40.76
2023-03-17T09:20:11.989Z,40.67
2023-03-17T09:22:41.026Z,40.29
2023-03-17T09:25:09.681Z,39.59
2023-03-17T09:27:41.008Z,39.32
2023-03-17T09:30:35.520Z,38.84
2023-03-17T09:33:27.282Z,38.59
2023-03-17T09:35:59.631Z,38.08
2023-03-17T09:38:30.052Z,37.68
2023-03-17T09:41:27.044Z,37.73
2023-03-17T09:44:13.556Z,37.55
2023-03-17T09:47:20.568Z,37.80
2023-03-17T09:49:51.474Z,37.72
2023-03-17T09:52:28.725Z,38.30
2023-03-17T09:54:58.122Z,38.15
2023-03-17T09:57:38.180Z,37.86
2023-03-17T10:00:15.302Z,37.59
2023-03-17T10:02:44.205Z,37.04
2023-03-17T10:05:21.759Z,36.49
2023-03-17T10:08:30.063Z,37.02
2023-03-17T10:11:28.154Z,37.08
2023-03-17T10:14:05.273Z,37.31
2023-03-17T10:16:39.393Z,37.08
2023-03-17T10:19:35.860Z,37.27
2023-03-17T10:22:07.204Z,37.16
2023-03-17T10:24:38.662Z,36.63
2023-03-17T10:27:07.020Z,36.53
2023-03-17T10:30:08.153Z,36.58
2023-03-17T10:32:38.052Z,35.87
2023-03-17T10:35:08.064Z,35.93
2023-03-17T10:37:40.981Z,36.04
2023-03-17T10:40:26.088Z,35.90
2023-03-17T10:43:00.856Z,35.56
2023-03-17T10:45:33.182Z,35.16
2023-03-17T10:48:05.551Z,35.23
2023-03-17T10:50:39.947Z,35.49
2023-03-17T10:53:28.582Z,35.58
2023-03-17T10:56:09.019Z,34.60
2023-03-17T10:59:07.970Z,34.24
2023-03-17T11:01:40.413Z,33.89
2023-03-17T11:04:44.655Z,33.66
2023-03-17T11:07:39.140Z,32.89
2023-03-17T11:10:30.290Z,32.41
2023-03-17T11:13:04.829Z,32.42
2023-03-17T11:15:44.491Z,33.10
2023-03-17T11:18:23.103Z,33.27
2023-03-17T11:20:57.913Z,32.96
2023-03-17T11:23:49.561Z,32.60
2023-03-17T11:26:39.477Z,32.75
2023-03-17T11:29:26.394Z,32.52
2023-03-17T11:32:18.088Z,32.66
2023-03-17T11:34:46.564Z,32.62
2023-03-17T11:37:51.864Z,32.63
2023-03-17T11:40:47.645Z,31.92
2023-03-17T11:43:47.648Z,31.27
2023-03-17T11:46:34.208Z,31.49
2023-03-17T11:49:22.459Z,31.82
2023-03-17T11:52:12.459Z,31.63
2023-03-17T11:54:45.982Z,31.69
2023-03-17T11:57:56.861Z,31.04
2023-03-17T12:00:34.179Z,31.04
2023-03-17T12:03:38.682Z,31.42
2023-03-17T12:06:37.829Z,31.86
2023-03-17T12:09:39.815Z,32.14
2023-03-17T12:12:28.717Z,32.57
2023-03-17T12:14:58.681Z,32.89
2023-03-17T12:17:51.672Z,33.30
2023-03-17T12:20:45.120Z,33.57
2023-03-17T12:23:44.045Z,34.02
2023-03-17T12:26:14.587Z,34.55
2023-03-17T12:29:20.607Z,34.75
2023-03-17T12:31:53.996Z,35.15
2023-03-17T12:34:52.130Z,35.41
2023-03-17T12:37:22.551Z,35.36
2023-03-17T12:40:14.534Z,35.54
2023-03-17T12:43:25.274Z,35.71
2023-03-17T12:46:29.447Z,35.83
2023-03-17T12:55:42.357Z,36.14
2023-03-17T12:58:31.450Z,36.28
2023-03-17T13:01:48.040Z,36.53
2023-03-17T13:05:12.076Z,36.76
2023-03-17T13:08:12.469Z,36.89
2023-03-17T13:10:44.906Z,37.44
2023-03-17T13:14:05.032Z,37.61
2023-03-17T13:17:29.215Z,37.96
2023-03-17T13:20:12.746Z,38.15
2023-03-17T13:22:42.768Z,38.47
2023-03-17T13:25:35.746Z,38.46
2023-03-17T13:28:35.037Z,38.67
2023-03-17T13:31:16.603Z,38.93
2023-03-17T13:33:53.430Z,39.04
2023-03-17T13:36:40.908Z,39.13
2023-03-17T13:39:21.288Z,39.57
2023-03-17T13:41:52.525Z,39.61
2023-03-17T13:44:34.112Z,39.87
2023-03-17T13:47:17.967Z,39.98
2023-03-17T13:49:55.561Z,40.19
2023-03-17T13:52:39.290Z,40.25
2023-03-17T13:55:20.771Z,40.27
2023-03-17T13:58:23.448Z,40.35
2023-03-17T14:00:57.029Z,40.60
2023-03-17T14:03:40.291Z,40.74
2023-03-17T14:06:13.025Z,41.06
2023-03-17T14:08:49.690Z,41.17
2023-03-17T14:11:38.072Z,41.26
2023-03-17T14:14:32.485Z,41.65
2023-03-17T14:17:20.540Z,41.98
2023-03-17T14:20:08.409Z,42.29
2023-03-17T14:22:41.550Z,42.48
2023-03-17T14:25:17.996Z,42.68
2023-03-17T14:27:51.081Z,43.14
2023-03-17T14:30:25.635Z,43.21
2023-03-17T14:33:23.213Z,43.46
2023-03-17T14:35:53.123Z,43.62
2023-03-17T14:38:32.205Z,43.86
2023-03-17T14:41:21.610Z,44.03
2023-03-17T14:43:59.202Z,43.99
2023-03-17T14:46:30.954Z,44.00
2023-03-17T14:49:19.697Z,44.33
2023-03-17T14:51:53.584Z,44.67
2023-03-17T14:54:36.191Z,45.05
2023-03-17T14:57:16.701Z,45.14
2023-03-17T15:00:02.144Z,45.20
2023-03-17T15:02:36.272Z,45.44
2023-03-17T15:05:05.655Z,45.72
2023-03-17T15:07:42.236Z,45.97
2023-03-17T15:10:20.562Z,46.11
2023-03-17T15:12:49.641Z,46.08
2023-03-17T15:15:26.659Z,46.44
2023-03-17T15:17:57.568Z,46.62
2023-03-17T15:20:29.111Z,46.81
2023-03-17T15:23:04.465Z,47.06
2023-03-17T15:25:40.323Z,47.35
2023-03-17T15:28:17.486Z,47.52
2023-03-17T15:30:48.397Z,47.87
2023-03-17T15:33:34.011Z,47.64
2023-03-17T15:36:05.041Z,47.74
2023-03-17T15:45:25.794Z,47.89
2023-03-17T15:47:55.401Z,48.10
2023-03-17T15:50:29.724Z,48.30
2023-03-17T15:52:58.822Z,48.36
2023-03-17T15:55:30.774Z,48.33
2023-03-17T15:57:59.194Z,48.81
2023-03-17T16:00:34.942Z,48.82
2023-03-17T16:03:30.756Z,48.86
2023-03-17T16:06:00.045Z,49.10
2023-03-17T16:08:28.993Z,49.26
2023-03-17T16:10:57.397Z,49.18
2023-03-17T16:13:26.071Z,49.03
2023-03-17T16:15:59.000Z,49.30
2023-03-17T16:18:37.504Z,49.24
2023-03-17T16:21:09.441Z,49.33
2023-03-17T16:23:40.793Z,49.45
2023-03-17T16:26:15.401Z,49.60
2023-03-17T16:28:46.375Z,49.60
2023-03-17T16:31:26.260Z,49.86
2023-03-17T16:33:55.000Z,50.09
2023-03-17T16:36:24.292Z,50.21
2023-03-17T16:38:52.465Z,50.27
2023-03-17T16:41:22.884Z,50.39
2023-03-17T16:43:59.412Z,50.57
2023-03-17T16:46:34.564Z,50.53
2023-03-17T16:49:14.717Z,50.68
2023-03-17T16:51:43.641Z,51.08
2023-03-17T16:54:14.271Z,51.24
2023-03-17T16:56:42.796Z,51.42
2023-03-17T16:59:21.475Z,51.76
2023-03-17T17:01:49.983Z,51.85
2023-03-17T17:04:21.315Z,51.93
2023-03-17T17:06:52.856Z,52.36
2023-03-17T17:09:21.589Z,52.51
2023-03-17T17:11:49.951Z,52.81
2023-03-17T17:14:18.493Z,52.90
2023-03-17T17:16:46.966Z,53.18
2023-03-17T17:19:16.809Z,53.44
2023-03-17T17:21:45.670Z,53.63
2023-03-17T17:24:14.918Z,54.16
2023-03-17T17:26:43.987Z,54.34
2023-03-17T17:29:13.099Z,54.63
2023-03-17T17:31:44.113Z,54.91
2023-03-17T17:34:14.843Z,55.24
2023-03-17T17:36:43.330Z,55.44
2023-03-17T17:39:11.724Z,55.75
2023-03-17T17:41:43.455Z,55.96
2023-03-17T17:44:12.140Z,56.28
2023-03-17T17:46:42.289Z,56.26
2023-03-17T17:49:12.180Z,56.48
2023-03-17T17:51:40.756Z,56.67
2023-03-17T17:54:09.239Z,56.77
2023-03-17T17:56:40.498Z,57.14
2023-03-17T17:59:09.802Z,57.30
2023-03-17T18:01:39.042Z,57.67
2023-03-17T18:04:10.339Z,58.04
2023-03-17T18:06:40.441Z,58.24
2023-03-17T18:09:08.730Z,58.39
2023-03-17T18:11:41.685Z,58.52
2023-03-17T18:14:10.463Z,58.76
2023-03-17T18:16:38.875Z,58.94
2023-03-17T18:19:08.782Z,58.99
2023-03-17T18:21:38.904Z,59.24
2023-03-17T18:24:12.332Z,59.20
2023-03-17T18:26:41.639Z,59.33
2023-03-17T18:29:10.078Z,59.58
2023-03-17T18:31:43.048Z,59.70
2023-03-17T18:34:29.268Z,59.86
2023-03-17T18:37:02.368Z,59.95
2023-03-17T18:39:32.809Z,60.08
2023-03-17T18:42:01.221Z,60.09
2023-03-17T18:44:32.529Z,60.40
2023-03-17T18:47:01.855Z,60.48
2023-03-17T18:49:34.580Z,60.60
2023-03-17T18:52:03.927Z,60.67
2023-03-17T18:54:32.564Z,60.79
2023-03-17T18:57:01.565Z,60.70
2023-03-17T18:59:30.045Z,60.75
2023-03-17T19:01:59.970Z,60.86
2023-03-17T19:04:28.491Z,60.96
2023-03-17T19:06:57.226Z,61.17
2023-03-17T19:09:25.505Z,61.23
2023-03-17T19:12:13.947Z,61.40
2023-03-17T19:14:42.201Z,61.53
2023-03-17T19:17:10.720Z,61.91
2023-03-17T19:19:39.387Z,62.03
2023-03-17T19:22:07.981Z,62.09
2023-03-17T19:24:38.199Z,62.28
2023-03-17T19:27:06.938Z,62.55
2023-03-17T19:29:38.769Z,62.31
2023-03-17T19:32:06.992Z,62.78
2023-03-17T19:34:35.506Z,62.67
2023-03-17T19:37:04.233Z,62.82
2023-03-17T19:39:37.770Z,62.71
2023-03-17T19:42:07.805Z,63.16
2023-03-17T19:44:36.682Z,63.04
2023-03-17T19:47:08.477Z,62.97
2023-03-17T19:49:37.757Z,63.31
2023-03-17T19:52:06.729Z,63.40
2023-03-17T19:54:38.432Z,63.60
2023-03-17T19:57:07.294Z,63.60
2023-03-17T19:59:35.535Z,63.75
2023-03-17T20:02:03.867Z,63.80
2023-03-17T20:04:32.434Z,64.13
2023-03-17T20:07:03.202Z,64.13
2023-03-17T20:09:32.855Z,64.03
2023-03-17T20:12:02.034Z,64.10
2023-03-17T20:14:30.678Z,64.28
2023-03-17T20:16:59.118Z,64.29
2023-03-17T20:19:32.892Z,64.27
2023-03-17T20:22:02.248Z,64.43
2023-03-17T20:24:31.834Z,64.74
2023-03-17T20:34:49.824Z,65.33
2023-03-17T20:37:20.017Z,65.33
2023-03-17T20:39:51.795Z,65.50
2023-03-17T20:42:20.736Z,65.77
2023-03-17T20:44:53.063Z,65.99
2023-03-17T20:47:22.354Z,65.77
2023-03-17T20:49:53.598Z,66.24
2023-03-17T20:52:22.449Z,66.29
2023-03-17T20:54:51.207Z,66.64
2023-03-17T20:57:23.045Z,66.79
2023-03-17T20:59:53.940Z,66.96
2023-03-17T21:02:22.251Z,66.87
2023-03-17T21:04:52.779Z,66.95
2023-03-17T21:07:22.087Z,67.07
2023-03-17T21:09:51.786Z,67.45
2023-03-17T21:12:23.649Z,67.51
2023-03-17T21:14:53.504Z,67.74
2023-03-17T21:17:22.963Z,67.79
2023-03-17T21:19:54.308Z,68.10
2023-03-17T21:22:24.442Z,68.57
2023-03-17T21:24:53.121Z,68.66
2023-03-17T21:27:21.743Z,68.75
2023-03-17T21:29:49.974Z,69.19
2023-03-17T21:32:18.973Z,69.40
2023-03-17T21:34:48.373Z,69.52
2023-03-17T21:37:18.501Z,69.82
2023-03-17T21:39:48.826Z,70.02
2023-03-17T21:42:17.427Z,70.19
2023-03-17T21:44:48.435Z,70.40
2023-03-17T21:47:16.975Z,70.78
2023-03-17T21:49:45.184Z,70.78
2023-03-17T21:52:15.039Z,70.76
2023-03-17T21:54:44.404Z,71.01
2023-03-17T21:57:13.706Z,71.13
2023-03-17T21:59:42.521Z,70.99
2023-03-17T22:02:12.598Z,71.17
2023-03-17T22:04:42.024Z,71.42
2023-03-17T22:07:13.508Z,71.40
2023-03-17T22:09:42.352Z,71.64
2023-03-17T22:12:11.636Z,71.71
2023-03-17T22:14:40.035Z,71.74
2023-03-17T22:17:08.495Z,72.01
2023-03-17T22:19:37.295Z,72.23
2023-03-17T22:22:08.547Z,72.39
2023-03-17T22:24:40.999Z,72.40
2023-03-17T22:27:09.731Z,72.40
2023-03-17T22:29:39.320Z,72.48
2023-03-17T22:32:08.689Z,72.47
2023-03-17T22:34:37.620Z,72.56
2023-03-17T22:44:52.755Z,73.60
2023-03-17T22:47:27.460Z,73.71
2023-03-17T22:49:56.210Z,73.86
2023-03-17T22:52:24.719Z,73.81
2023-03-17T22:54:53.915Z,74.00
2023-03-17T22:57:22.701Z,74.00
2023-03-17T22:59:52.526Z,74.12
2023-03-17T23:02:20.839Z,74.14
2023-03-17T23:04:50.194Z,74.45
2023-03-17T23:07:19.037Z,74.57
2023-03-17T23:09:50.022Z,74.71
2023-03-17T23:12:24.587Z,74.94
2023-03-17T23:14:53.874Z,75.22
2023-03-17T23:17:22.139Z,75.17
2023-03-17T23:19:50.608Z,75.62
2023-03-17T23:22:19.898Z,75.72
2023-03-17T23:24:48.824Z,75.85
2023-03-17T23:27:17.179Z,75.92
2023-03-17T23:29:45.854Z,75.95
2023-03-17T23:32:15.157Z,75.83
2023-03-17T23:34:43.609Z,75.99
2023-03-17T23:37:12.346Z,76.22
2023-03-17T23:39:41.831Z,76.64
2023-03-17T23:42:13.471Z,76.73
2023-03-17T23:44:45.276Z,76.61
2023-03-17T23:47:15.051Z,76.68
2023-03-17T23:49:44.172Z,77.08
2023-03-17T23:52:12.922Z,76.83
2023-03-17T23:54:41.609Z,76.88
2023-03-17T23:57:12.062Z,77.08
2023-03-17T23:59:43.696Z,77.26
